sensor_id;sensor_type;location;lat;lon;timestamp;P1;durP1;ratioP1;P2;durP2;ratioP2
68744;SDS011;66104;45.456;11.064;2023-03-01T00:02:05;7.90;;;4.90;;
68744;SDS011;66104;45.456;11.064;2023-03-01T00:04:41;8.30;;;5.40;;
68744;SDS011;66104;45.456;11.064;2023-03-01T00:07:17;9.50;;;5.60;;
68744;SDS011;66104;45.456;11.064;2023-03-01T00:09:54;7.90;;;4.50;;
68744;SDS011;66104;45.456;11.064;2023-03-01T00:12:31;8.60;;;5.40;;
68744;SDS011;66104;45.456;11.064;2023-03-01T00:15:11;8.20;;;5.20;;
68744;SDS011;66104;45.456;11.064;2023-03-01T00:17:48;7.60;;;4.60;;
68744;SDS011;66104;45.456;11.064;2023-03-01T00:20:25;8.50;;;5.10;;
68744;SDS011;66104;45.456;11.064;2023-03-01T00:23:02;9.00;;;5.20;;
68744;SDS011;66104;45.456;11.064;2023-03-01T00:25:45;11.00;;;5.70;;
68744;SDS011;66104;45.456;11.064;2023-03-01T00:28:21;11.00;;;5.50;;
68744;SDS011;66104;45.456;11.064;2023-03-01T00:30:58;8.90;;;5.20;;
68744;SDS011;66104;45.456;11.064;2023-03-01T00:33:39;9.80;;;5.60;;
68744;SDS011;66104;45.456;11.064;2023-03-01T00:36:16;9.20;;;5.60;;
68744;SDS011;66104;45.456;11.064;2023-03-01T00:38:53;8.70;;;4.90;;
68744;SDS011;66104;45.456;11.064;2023-03-01T00:41:32;8.80;;;5.80;;
68744;SDS011;66104;45.456;11.064;2023-03-01T00:44:09;10.10;;;6.90;;
68744;SDS011;66104;45.456;11.064;2023-03-01T00:46:49;11.60;;;6.60;;
68744;SDS011;66104;45.456;11.064;2023-03-01T00:49:26;9.80;;;5.60;;
68744;SDS011;66104;45.456;11.064;2023-03-01T00:52:03;11.70;;;7.50;;
68744;SDS011;66104;45.456;11.064;2023-03-01T00:54:40;15.00;;;7.30;;
68744;SDS011;66104;45.456;11.064;2023-03-01T00:57:17;12.70;;;7.00;;
68744;SDS011;66104;45.456;11.064;2023-03-01T00:59:53;12.00;;;6.80;;
68744;SDS011;66104;45.456;11.064;2023-03-01T01:02:31;11.00;;;6.80;;
68744;SDS011;66104;45.456;11.064;2023-03-01T01:05:10;13.20;;;6.90;;
68744;SDS011;66104;45.456;11.064;2023-03-01T01:07:47;10.00;;;6.40;;
68744;SDS011;66104;45.456;11.064;2023-03-01T01:10:23;11.50;;;5.90;;
68744;SDS011;66104;45.456;11.064;2023-03-01T01:12:59;10.80;;;6.80;;
68744;SDS011;66104;45.456;11.064;2023-03-01T01:15:37;12.60;;;7.80;;
68744;SDS011;66104;45.456;11.064;2023-03-01T01:18:13;9.70;;;6.50;;
68744;SDS011;66104;45.456;11.064;2023-03-01T01:20:50;11.30;;;6.50;;
68744;SDS011;66104;45.456;11.064;2023-03-01T01:23:27;13.30;;;7.40;;
68744;SDS011;66104;45.456;11.064;2023-03-01T01:26:07;13.00;;;7.20;;
68744;SDS011;66104;45.456;11.064;2023-03-01T01:28:45;11.90;;;6.50;;
68744;SDS011;66104;45.456;11.064;2023-03-01T01:31:22;11.20;;;6.50;;
68744;SDS011;66104;45.456;11.064;2023-03-01T01:34:01;11.60;;;6.50;;
68744;SDS011;66104;45.456;11.064;2023-03-01T01:36:41;11.70;;;6.70;;
68744;SDS011;66104;45.456;11.064;2023-03-01T01:39:17;12.80;;;7.40;;
68744;SDS011;66104;45.456;11.064;2023-03-01T01:41:55;10.30;;;6.20;;
68744;SDS011;66104;45.456;11.064;2023-03-01T01:44:32;10.90;;;6.80;;
68744;SDS011;66104;45.456;11.064;2023-03-01T01:47:15;11.90;;;7.00;;
68744;SDS011;66104;45.456;11.064;2023-03-01T01:49:55;11.00;;;6.60;;
68744;SDS011;66104;45.456;11.064;2023-03-01T01:52:34;12.60;;;7.20;;
68744;SDS011;66104;45.456;11.064;2023-03-01T01:55:14;11.90;;;7.30;;
68744;SDS011;66104;45.456;11.064;2023-03-01T01:57:56;13.50;;;7.70;;
68744;SDS011;66104;45.456;11.064;2023-03-01T02:00:39;12.80;;;8.20;;
68744;SDS011;66104;45.456;11.064;2023-03-01T02:03:17;10.80;;;6.50;;
68744;SDS011;66104;45.456;11.064;2023-03-01T02:06:00;15.80;;;8.40;;
68744;SDS011;66104;45.456;11.064;2023-03-01T02:08:40;13.90;;;7.20;;
68744;SDS011;66104;45.456;11.064;2023-03-01T02:11:20;12.70;;;7.30;;
68744;SDS011;66104;45.456;11.064;2023-03-01T02:13:58;12.70;;;7.70;;
68744;SDS011;66104;45.456;11.064;2023-03-01T02:16:35;14.10;;;7.70;;
68744;SDS011;66104;45.456;11.064;2023-03-01T02:19:16;16.10;;;8.20;;
68744;SDS011;66104;45.456;11.064;2023-03-01T02:22:10;16.80;;;8.50;;
68744;SDS011;66104;45.456;11.064;2023-03-01T02:25:04;14.20;;;7.80;;
68744;SDS011;66104;45.456;11.064;2023-03-01T02:27:57;14.50;;;7.80;;
68744;SDS011;66104;45.456;11.064;2023-03-01T02:30:37;15.40;;;7.70;;
68744;SDS011;66104;45.456;11.064;2023-03-01T02:33:36;16.00;;;8.80;;
68744;SDS011;66104;45.456;11.064;2023-03-01T02:36:18;15.60;;;8.60;;
68744;SDS011;66104;45.456;11.064;2023-03-01T02:39:00;14.10;;;8.50;;
68744;SDS011;66104;45.456;11.064;2023-03-01T02:41:42;15.30;;;8.70;;
68744;SDS011;66104;45.456;11.064;2023-03-01T02:44:20;15.10;;;8.70;;
68744;SDS011;66104;45.456;11.064;2023-03-01T02:46:58;14.50;;;7.90;;
68744;SDS011;66104;45.456;11.064;2023-03-01T02:49:39;15.40;;;8.10;;
68744;SDS011;66104;45.456;11.064;2023-03-01T02:52:33;16.60;;;8.60;;
68744;SDS011;66104;45.456;11.064;2023-03-01T02:55:20;19.30;;;9.40;;
68744;SDS011;66104;45.456;11.064;2023-03-01T02:57:58;15.10;;;8.80;;
68744;SDS011;66104;45.456;11.064;2023-03-01T03:00:41;12.20;;;7.80;;
68744;SDS011;66104;45.456;11.064;2023-03-01T03:03:21;19.00;;;9.60;;
68744;SDS011;66104;45.456;11.064;2023-03-01T03:05:58;17.00;;;9.40;;
68744;SDS011;66104;45.456;11.064;2023-03-01T03:08:34;15.80;;;8.30;;
68744;SDS011;66104;45.456;11.064;2023-03-01T03:11:12;14.90;;;8.30;;
68744;SDS011;66104;45.456;11.064;2023-03-01T03:13:52;13.00;;;7.80;;
68744;SDS011;66104;45.456;11.064;2023-03-01T03:16:29;15.60;;;8.60;;
68744;SDS011;66104;45.456;11.064;2023-03-01T03:19:06;17.50;;;9.10;;
68744;SDS011;66104;45.456;11.064;2023-03-01T03:21:42;16.50;;;8.90;;
68744;SDS011;66104;45.456;11.064;2023-03-01T03:24:22;20.00;;;9.40;;
68744;SDS011;66104;45.456;11.064;2023-03-01T03:27:01;17.80;;;9.40;;
68744;SDS011;66104;45.456;11.064;2023-03-01T03:29:38;19.50;;;9.60;;
68744;SDS011;66104;45.456;11.064;2023-03-01T03:32:15;16.30;;;7.60;;
68744;SDS011;66104;45.456;11.064;2023-03-01T03:34:53;17.30;;;9.80;;
68744;SDS011;66104;45.456;11.064;2023-03-01T03:37:30;16.20;;;9.20;;
68744;SDS011;66104;45.456;11.064;2023-03-01T03:40:23;16.60;;;8.90;;
68744;SDS011;66104;45.456;11.064;2023-03-01T03:43:00;18.00;;;9.60;;
68744;SDS011;66104;45.456;11.064;2023-03-01T03:45:38;15.40;;;9.10;;
68744;SDS011;66104;45.456;11.064;2023-03-01T03:48:14;13.90;;;7.80;;
68744;SDS011;66104;45.456;11.064;2023-03-01T03:50:54;15.60;;;8.80;;
68744;SDS011;66104;45.456;11.064;2023-03-01T03:53:31;17.50;;;9.70;;
68744;SDS011;66104;45.456;11.064;2023-03-01T03:56:11;20.00;;;10.00;;
68744;SDS011;66104;45.456;11.064;2023-03-01T03:58:48;16.50;;;9.30;;
68744;SDS011;66104;45.456;11.064;2023-03-01T04:01:26;16.10;;;8.90;;
68744;SDS011;66104;45.456;11.064;2023-03-01T04:04:03;15.40;;;8.40;;
68744;SDS011;66104;45.456;11.064;2023-03-01T04:06:40;17.70;;;9.90;;
68744;SDS011;66104;45.456;11.064;2023-03-01T04:09:17;16.80;;;8.80;;
68744;SDS011;66104;45.456;11.064;2023-03-01T04:11:53;15.60;;;7.60;;
68744;SDS011;66104;45.456;11.064;2023-03-01T04:14:30;13.90;;;8.60;;
68744;SDS011;66104;45.456;11.064;2023-03-01T04:17:07;16.70;;;8.30;;
68744;SDS011;66104;45.456;11.064;2023-03-01T04:19:44;15.60;;;8.90;;
68744;SDS011;66104;45.456;11.064;2023-03-01T04:22:23;17.50;;;9.60;;
68744;SDS011;66104;45.456;11.064;2023-03-01T04:25:00;13.50;;;8.40;;
68744;SDS011;66104;45.456;11.064;2023-03-01T04:27:38;15.20;;;8.40;;
68744;SDS011;66104;45.456;11.064;2023-03-01T04:30:17;15.10;;;8.90;;
68744;SDS011;66104;45.456;11.064;2023-03-01T04:32:56;15.30;;;8.50;;
68744;SDS011;66104;45.456;11.064;2023-03-01T04:35:34;19.30;;;9.50;;
68744;SDS011;66104;45.456;11.064;2023-03-01T04:38:11;15.40;;;9.30;;
68744;SDS011;66104;45.456;11.064;2023-03-01T04:40:49;16.40;;;8.80;;
68744;SDS011;66104;45.456;11.064;2023-03-01T04:43:26;14.20;;;8.80;;
68744;SDS011;66104;45.456;11.064;2023-03-01T04:46:05;21.80;;;9.70;;
68744;SDS011;66104;45.456;11.064;2023-03-01T04:48:46;16.60;;;9.70;;
68744;SDS011;66104;45.456;11.064;2023-03-01T04:51:23;19.00;;;10.30;;
68744;SDS011;66104;45.456;11.064;2023-03-01T04:54:00;19.70;;;10.60;;
68744;SDS011;66104;45.456;11.064;2023-03-01T04:56:40;16.20;;;9.90;;
68744;SDS011;66104;45.456;11.064;2023-03-01T04:59:17;17.70;;;9.60;;
68744;SDS011;66104;45.456;11.064;2023-03-01T05:01:55;15.20;;;9.00;;
68744;SDS011;66104;45.456;11.064;2023-03-01T05:04:32;16.10;;;9.20;;
68744;SDS011;66104;45.456;11.064;2023-03-01T05:07:10;15.30;;;9.10;;
68744;SDS011;66104;45.456;11.064;2023-03-01T05:09:51;19.00;;;9.90;;
68744;SDS011;66104;45.456;11.064;2023-03-01T05:12:28;18.00;;;10.20;;
68744;SDS011;66104;45.456;11.064;2023-03-01T05:15:07;18.90;;;10.90;;
68744;SDS011;66104;45.456;11.064;2023-03-01T05:17:45;20.10;;;11.70;;
68744;SDS011;66104;45.456;11.064;2023-03-01T05:20:23;17.00;;;10.30;;
68744;SDS011;66104;45.456;11.064;2023-03-01T05:23:00;14.60;;;9.10;;
68744;SDS011;66104;45.456;11.064;2023-03-01T05:25:37;13.90;;;8.00;;
68744;SDS011;66104;45.456;11.064;2023-03-01T05:28:14;14.90;;;9.00;;
68744;SDS011;66104;45.456;11.064;2023-03-01T05:30:51;20.00;;;10.40;;
68744;SDS011;66104;45.456;11.064;2023-03-01T05:33:29;15.00;;;8.70;;
68744;SDS011;66104;45.456;11.064;2023-03-01T05:36:11;14.40;;;8.80;;
68744;SDS011;66104;45.456;11.064;2023-03-01T05:38:50;18.00;;;9.20;;
68744;SDS011;66104;45.456;11.064;2023-03-01T05:41:28;14.30;;;8.70;;
68744;SDS011;66104;45.456;11.064;2023-03-01T05:44:07;19.60;;;11.20;;
68744;SDS011;66104;45.456;11.064;2023-03-01T05:46:48;15.60;;;9.20;;
68744;SDS011;66104;45.456;11.064;2023-03-01T05:49:25;20.00;;;10.20;;
68744;SDS011;66104;45.456;11.064;2023-03-01T05:52:02;15.20;;;9.00;;
68744;SDS011;66104;45.456;11.064;2023-03-01T05:54:40;22.90;;;11.60;;
68744;SDS011;66104;45.456;11.064;2023-03-01T05:57:17;20.20;;;10.60;;
68744;SDS011;66104;45.456;11.064;2023-03-01T05:59:54;17.20;;;8.80;;
68744;SDS011;66104;45.456;11.064;2023-03-01T06:02:31;23.10;;;10.50;;
68744;SDS011;66104;45.456;11.064;2023-03-01T06:05:14;20.10;;;11.20;;
68744;SDS011;66104;45.456;11.064;2023-03-01T06:07:53;15.10;;;9.40;;
68744;SDS011;66104;45.456;11.064;2023-03-01T06:10:32;16.80;;;10.00;;
68744;SDS011;66104;45.456;11.064;2023-03-01T06:13:09;20.00;;;10.70;;
68744;SDS011;66104;45.456;11.064;2023-03-01T06:15:47;20.80;;;12.30;;
68744;SDS011;66104;45.456;11.064;2023-03-01T06:18:23;18.50;;;10.00;;
68744;SDS011;66104;45.456;11.064;2023-03-01T06:21:00;21.10;;;10.90;;
68744;SDS011;66104;45.456;11.064;2023-03-01T06:23:38;20.20;;;10.80;;
68744;SDS011;66104;45.456;11.064;2023-03-01T06:26:16;19.40;;;10.60;;
68744;SDS011;66104;45.456;11.064;2023-03-01T06:28:53;19.20;;;11.00;;
68744;SDS011;66104;45.456;11.064;2023-03-01T06:31:29;20.10;;;10.70;;
68744;SDS011;66104;45.456;11.064;2023-03-01T06:34:06;19.00;;;10.20;;
68744;SDS011;66104;45.456;11.064;2023-03-01T06:36:46;19.10;;;10.60;;
68744;SDS011;66104;45.456;11.064;2023-03-01T06:39:23;19.30;;;10.80;;
68744;SDS011;66104;45.456;11.064;2023-03-01T06:42:01;17.80;;;10.60;;
68744;SDS011;66104;45.456;11.064;2023-03-01T06:44:39;18.90;;;10.50;;
68744;SDS011;66104;45.456;11.064;2023-03-01T06:47:16;17.30;;;10.90;;
68744;SDS011;66104;45.456;11.064;2023-03-01T06:49:53;18.10;;;8.70;;
68744;SDS011;66104;45.456;11.064;2023-03-01T06:52:31;14.70;;;9.60;;
68744;SDS011;66104;45.456;11.064;2023-03-01T06:55:10;16.50;;;9.70;;
68744;SDS011;66104;45.456;11.064;2023-03-01T06:57:48;16.50;;;9.70;;
68744;SDS011;66104;45.456;11.064;2023-03-01T07:00:30;17.20;;;9.80;;
68744;SDS011;66104;45.456;11.064;2023-03-01T07:03:12;18.40;;;10.10;;
68744;SDS011;66104;45.456;11.064;2023-03-01T07:05:50;16.90;;;10.50;;
68744;SDS011;66104;45.456;11.064;2023-03-01T07:08:27;20.10;;;10.70;;
68744;SDS011;66104;45.456;11.064;2023-03-01T07:11:06;19.70;;;11.00;;
68744;SDS011;66104;45.456;11.064;2023-03-01T07:13:42;17.30;;;10.40;;
68744;SDS011;66104;45.456;11.064;2023-03-01T07:16:18;20.80;;;10.80;;
68744;SDS011;66104;45.456;11.064;2023-03-01T07:18:59;19.50;;;11.20;;
68744;SDS011;66104;45.456;11.064;2023-03-01T07:21:40;20.90;;;10.90;;
68744;SDS011;66104;45.456;11.064;2023-03-01T07:24:16;19.50;;;11.00;;
68744;SDS011;66104;45.456;11.064;2023-03-01T07:26:54;20.90;;;11.60;;
68744;SDS011;66104;45.456;11.064;2023-03-01T07:29:31;19.20;;;10.60;;
68744;SDS011;66104;45.456;11.064;2023-03-01T07:32:09;20.00;;;11.10;;
68744;SDS011;66104;45.456;11.064;2023-03-01T07:34:50;17.20;;;10.50;;
68744;SDS011;66104;45.456;11.064;2023-03-01T07:37:27;18.00;;;11.10;;
68744;SDS011;66104;45.456;11.064;2023-03-01T07:40:09;18.20;;;11.00;;
68744;SDS011;66104;45.456;11.064;2023-03-01T07:42:49;18.70;;;10.20;;
68744;SDS011;66104;45.456;11.064;2023-03-01T07:45:33;19.10;;;10.70;;
68744;SDS011;66104;45.456;11.064;2023-03-01T07:48:09;18.60;;;10.90;;
68744;SDS011;66104;45.456;11.064;2023-03-01T07:50:47;26.30;;;12.20;;
68744;SDS011;66104;45.456;11.064;2023-03-01T07:53:24;21.60;;;12.00;;
68744;SDS011;66104;45.456;11.064;2023-03-01T07:56:10;18.90;;;11.90;;
68744;SDS011;66104;45.456;11.064;2023-03-01T07:58:50;20.20;;;11.50;;
68744;SDS011;66104;45.456;11.064;2023-03-01T08:01:26;20.50;;;11.00;;
68744;SDS011;66104;45.456;11.064;2023-03-01T08:04:04;23.70;;;12.60;;
68744;SDS011;66104;45.456;11.064;2023-03-01T08:06:41;22.30;;;12.70;;
68744;SDS011;66104;45.456;11.064;2023-03-01T08:09:19;26.60;;;14.50;;
68744;SDS011;66104;45.456;11.064;2023-03-01T08:11:58;27.50;;;14.90;;
68744;SDS011;66104;45.456;11.064;2023-03-01T08:14:36;22.50;;;12.70;;
68744;SDS011;66104;45.456;11.064;2023-03-01T08:17:26;23.80;;;13.70;;
68744;SDS011;66104;45.456;11.064;2023-03-01T08:20:04;21.80;;;12.30;;
68744;SDS011;66104;45.456;11.064;2023-03-01T08:22:45;21.80;;;13.00;;
68744;SDS011;66104;45.456;11.064;2023-03-01T08:25:23;19.60;;;11.30;;
68744;SDS011;66104;45.456;11.064;2023-03-01T08:28:09;20.70;;;12.30;;
68744;SDS011;66104;45.456;11.064;2023-03-01T08:30:45;24.80;;;12.00;;
68744;SDS011;66104;45.456;11.064;2023-03-01T08:33:22;20.00;;;11.40;;
68744;SDS011;66104;45.456;11.064;2023-03-01T08:36:07;22.80;;;13.20;;
68744;SDS011;66104;45.456;11.064;2023-03-01T08:38:44;22.90;;;11.80;;
68744;SDS011;66104;45.456;11.064;2023-03-01T08:41:23;19.40;;;11.10;;
68744;SDS011;66104;45.456;11.064;2023-03-01T08:44:00;22.10;;;12.30;;
68744;SDS011;66104;45.456;11.064;2023-03-01T08:46:38;20.20;;;12.20;;
68744;SDS011;66104;45.456;11.064;2023-03-01T08:49:18;23.50;;;13.10;;
68744;SDS011;66104;45.456;11.064;2023-03-01T08:51:58;25.60;;;13.50;;
68744;SDS011;66104;45.456;11.064;2023-03-01T08:54:37;22.40;;;13.60;;
68744;SDS011;66104;45.456;11.064;2023-03-01T08:57:15;24.20;;;13.30;;
68744;SDS011;66104;45.456;11.064;2023-03-01T08:59:52;24.90;;;13.90;;
68744;SDS011;66104;45.456;11.064;2023-03-01T09:02:31;24.00;;;14.70;;
68744;SDS011;66104;45.456;11.064;2023-03-01T09:05:14;22.90;;;14.20;;
68744;SDS011;66104;45.456;11.064;2023-03-01T09:07:53;23.00;;;13.50;;
68744;SDS011;66104;45.456;11.064;2023-03-01T09:10:31;24.20;;;14.40;;
68744;SDS011;66104;45.456;11.064;2023-03-01T09:13:11;24.20;;;14.30;;
68744;SDS011;66104;45.456;11.064;2023-03-01T09:15:48;25.90;;;14.60;;
68744;SDS011;66104;45.456;11.064;2023-03-01T09:18:25;25.20;;;14.90;;
68744;SDS011;66104;45.456;11.064;2023-03-01T09:21:06;25.30;;;15.30;;
68744;SDS011;66104;45.456;11.064;2023-03-01T09:23:46;25.60;;;15.20;;
68744;SDS011;66104;45.456;11.064;2023-03-01T09:26:24;23.30;;;13.60;;
68744;SDS011;66104;45.456;11.064;2023-03-01T09:29:01;26.50;;;15.00;;
68744;SDS011;66104;45.456;11.064;2023-03-01T09:31:39;18.90;;;12.50;;
68744;SDS011;66104;45.456;11.064;2023-03-01T09:34:17;22.30;;;14.10;;
68744;SDS011;66104;45.456;11.064;2023-03-01T09:36:56;24.10;;;13.40;;
68744;SDS011;66104;45.456;11.064;2023-03-01T09:39:33;21.50;;;13.10;;
68744;SDS011;66104;45.456;11.064;2023-03-01T09:42:14;23.20;;;13.70;;
68744;SDS011;66104;45.456;11.064;2023-03-01T09:44:56;22.40;;;13.00;;
68744;SDS011;66104;45.456;11.064;2023-03-01T09:47:39;22.50;;;12.60;;
68744;SDS011;66104;45.456;11.064;2023-03-01T09:50:21;23.30;;;14.00;;
68744;SDS011;66104;45.456;11.064;2023-03-01T09:53:09;22.40;;;13.00;;
68744;SDS011;66104;45.456;11.064;2023-03-01T09:55:55;20.40;;;11.20;;
68744;SDS011;66104;45.456;11.064;2023-03-01T09:58:41;17.50;;;10.00;;
68744;SDS011;66104;45.456;11.064;2023-03-01T10:01:40;17.00;;;9.50;;
68744;SDS011;66104;45.456;11.064;2023-03-01T10:04:41;19.10;;;10.40;;
68744;SDS011;66104;45.456;11.064;2023-03-01T10:07:32;15.80;;;9.60;;
68744;SDS011;66104;45.456;11.064;2023-03-01T10:10:28;19.10;;;10.50;;
68744;SDS011;66104;45.456;11.064;2023-03-01T10:13:16;18.10;;;10.70;;
68744;SDS011;66104;45.456;11.064;2023-03-01T10:18:47;19.10;;;10.90;;
68744;SDS011;66104;45.456;11.064;2023-03-01T10:21:29;17.90;;;11.00;;
68744;SDS011;66104;45.456;11.064;2023-03-01T10:24:18;18.10;;;11.00;;
68744;SDS011;66104;45.456;11.064;2023-03-01T10:27:00;17.00;;;10.30;;
68744;SDS011;66104;45.456;11.064;2023-03-01T10:29:48;17.40;;;10.70;;
68744;SDS011;66104;45.456;11.064;2023-03-01T10:32:40;17.60;;;10.70;;
68744;SDS011;66104;45.456;11.064;2023-03-01T10:35:26;15.70;;;9.90;;
68744;SDS011;66104;45.456;11.064;2023-03-01T10:38:09;15.50;;;10.50;;
68744;SDS011;66104;45.456;11.064;2023-03-01T10:40:59;19.10;;;11.10;;
68744;SDS011;66104;45.456;11.064;2023-03-01T10:43:47;20.50;;;12.20;;
68744;SDS011;66104;45.456;11.064;2023-03-01T10:46:30;18.50;;;11.00;;
68744;SDS011;66104;45.456;11.064;2023-03-01T10:49:17;17.20;;;10.50;;
68744;SDS011;66104;45.456;11.064;2023-03-01T10:51:58;18.20;;;10.70;;
68744;SDS011;66104;45.456;11.064;2023-03-01T10:54:57;19.90;;;10.60;;
68744;SDS011;66104;45.456;11.064;2023-03-01T10:57:38;17.70;;;10.60;;
68744;SDS011;66104;45.456;11.064;2023-03-01T11:00:31;17.70;;;11.20;;
68744;SDS011;66104;45.456;11.064;2023-03-01T11:03:21;14.20;;;9.30;;
68744;SDS011;66104;45.456;11.064;2023-03-01T11:06:23;15.40;;;9.50;;
68744;SDS011;66104;45.456;11.064;2023-03-01T11:09:01;16.40;;;10.00;;
68744;SDS011;66104;45.456;11.064;2023-03-01T11:11:57;13.80;;;9.10;;
68744;SDS011;66104;45.456;11.064;2023-03-01T11:14:37;18.70;;;9.20;;
68744;SDS011;66104;45.456;11.064;2023-03-01T11:17:25;16.60;;;8.90;;
68744;SDS011;66104;45.456;11.064;2023-03-01T11:20:23;15.00;;;9.10;;
68744;SDS011;66104;45.456;11.064;2023-03-01T11:23:09;15.40;;;9.50;;
68744;SDS011;66104;45.456;11.064;2023-03-01T11:25:54;15.60;;;8.50;;
68744;SDS011;66104;45.456;11.064;2023-03-01T11:28:34;11.60;;;7.50;;
68744;SDS011;66104;45.456;11.064;2023-03-01T11:31:15;12.80;;;8.20;;
68744;SDS011;66104;45.456;11.064;2023-03-01T11:33:56;12.20;;;7.50;;
68744;SDS011;66104;45.456;11.064;2023-03-01T11:36:39;13.00;;;7.20;;
68744;SDS011;66104;45.456;11.064;2023-03-01T11:39:26;16.00;;;8.00;;
68744;SDS011;66104;45.456;11.064;2023-03-01T11:42:14;15.30;;;9.40;;
68744;SDS011;66104;45.456;11.064;2023-03-01T11:44:58;18.20;;;10.20;;
68744;SDS011;66104;45.456;11.064;2023-03-01T11:51:00;13.70;;;8.00;;
68744;SDS011;66104;45.456;11.064;2023-03-01T11:53:56;16.50;;;9.70;;
68744;SDS011;66104;45.456;11.064;2023-03-01T11:56:45;17.50;;;10.40;;
68744;SDS011;66104;45.456;11.064;2023-03-01T12:12:34;11.90;;;6.70;;
68744;SDS011;66104;45.456;11.064;2023-03-01T12:19:01;12.90;;;6.50;;
68744;SDS011;66104;45.456;11.064;2023-03-01T12:22:00;10.80;;;5.60;;
68744;SDS011;66104;45.456;11.064;2023-03-01T12:28:30;9.40;;;5.20;;
68744;SDS011;66104;45.456;11.064;2023-03-01T12:35:02;11.10;;;4.80;;
68744;SDS011;66104;45.456;11.064;2023-03-01T12:37:57;11.40;;;4.50;;
68744;SDS011;66104;45.456;11.064;2023-03-01T12:40:51;11.60;;;4.90;;
68744;SDS011;66104;45.456;11.064;2023-03-01T12:43:47;10.00;;;6.00;;
68744;SDS011;66104;45.456;11.064;2023-03-01T12:46:41;7.90;;;4.50;;
68744;SDS011;66104;45.456;11.064;2023-03-01T12:49:31;11.10;;;5.10;;
68744;SDS011;66104;45.456;11.064;2023-03-01T12:52:18;6.90;;;3.70;;
68744;SDS011;66104;45.456;11.064;2023-03-01T12:54:58;7.40;;;4.60;;
68744;SDS011;66104;45.456;11.064;2023-03-01T12:57:45;16.30;;;5.70;;
68744;SDS011;66104;45.456;11.064;2023-03-01T13:00:30;9.50;;;4.90;;
68744;SDS011;66104;45.456;11.064;2023-03-01T13:03:23;9.50;;;4.20;;
68744;SDS011;66104;45.456;11.064;2023-03-01T13:06:11;14.40;;;5.00;;
68744;SDS011;66104;45.456;11.064;2023-03-01T13:08:58;12.40;;;6.40;;
68744;SDS011;66104;45.456;11.064;2023-03-01T13:11:40;13.80;;;5.00;;
68744;SDS011;66104;45.456;11.064;2023-03-01T13:17:43;9.00;;;4.10;;
68744;SDS011;66104;45.456;11.064;2023-03-01T13:20:25;16.60;;;4.70;;
68744;SDS011;66104;45.456;11.064;2023-03-01T13:23:11;12.30;;;5.30;;
68744;SDS011;66104;45.456;11.064;2023-03-01T13:26:08;9.80;;;4.00;;
68744;SDS011;66104;45.456;11.064;2023-03-01T13:28:55;16.60;;;4.50;;
68744;SDS011;66104;45.456;11.064;2023-03-01T13:32:00;12.10;;;4.50;;
68744;SDS011;66104;45.456;11.064;2023-03-01T13:34:45;8.60;;;3.80;;
68744;SDS011;66104;45.456;11.064;2023-03-01T13:37:39;10.40;;;3.70;;
68744;SDS011;66104;45.456;11.064;2023-03-01T13:43:37;9.40;;;3.90;;
68744;SDS011;66104;45.456;11.064;2023-03-01T13:46:20;12.70;;;4.60;;
68744;SDS011;66104;45.456;11.064;2023-03-01T13:48:59;10.40;;;4.00;;
68744;SDS011;66104;45.456;11.064;2023-03-01T13:51:36;10.80;;;4.60;;
68744;SDS011;66104;45.456;11.064;2023-03-01T13:54:14;12.60;;;4.30;;
68744;SDS011;66104;45.456;11.064;2023-03-01T13:56:57;9.80;;;4.90;;
68744;SDS011;66104;45.456;11.064;2023-03-01T13:59:34;12.10;;;5.10;;
68744;SDS011;66104;45.456;11.064;2023-03-01T14:02:22;8.10;;;3.80;;
68744;SDS011;66104;45.456;11.064;2023-03-01T14:05:01;10.10;;;4.70;;
68744;SDS011;66104;45.456;11.064;2023-03-01T14:07:43;11.40;;;5.00;;
68744;SDS011;66104;45.456;11.064;2023-03-01T14:10:30;8.80;;;4.40;;
68744;SDS011;66104;45.456;11.064;2023-03-01T14:13:23;9.40;;;4.30;;
68744;SDS011;66104;45.456;11.064;2023-03-01T14:16:15;11.60;;;4.60;;
68744;SDS011;66104;45.456;11.064;2023-03-01T14:19:05;9.10;;;4.80;;
68744;SDS011;66104;45.456;11.064;2023-03-01T14:22:06;8.70;;;4.40;;
68744;SDS011;66104;45.456;11.064;2023-03-01T14:24:52;10.60;;;5.10;;
68744;SDS011;66104;45.456;11.064;2023-03-01T14:27:35;10.10;;;4.50;;
68744;SDS011;66104;45.456;11.064;2023-03-01T14:30:18;9.80;;;4.30;;
68744;SDS011;66104;45.456;11.064;2023-03-01T14:32:58;13.20;;;5.30;;
68744;SDS011;66104;45.456;11.064;2023-03-01T14:35:37;12.10;;;5.00;;
68744;SDS011;66104;45.456;11.064;2023-03-01T14:38:22;10.60;;;4.10;;
68744;SDS011;66104;45.456;11.064;2023-03-01T14:41:04;10.10;;;4.90;;
68744;SDS011;66104;45.456;11.064;2023-03-01T14:43:44;7.70;;;3.40;;
68744;SDS011;66104;45.456;11.064;2023-03-01T14:46:26;14.70;;;3.80;;
68744;SDS011;66104;45.456;11.064;2023-03-01T14:49:12;8.80;;;3.10;;
68744;SDS011;66104;45.456;11.064;2023-03-01T14:51:54;11.40;;;3.50;;
68744;SDS011;66104;45.456;11.064;2023-03-01T14:54:41;6.30;;;2.70;;
68744;SDS011;66104;45.456;11.064;2023-03-01T14:57:22;18.90;;;7.30;;
68744;SDS011;66104;45.456;11.064;2023-03-01T15:00:01;13.80;;;4.20;;
68744;SDS011;66104;45.456;11.064;2023-03-01T15:02:40;8.20;;;3.30;;
68744;SDS011;66104;45.456;11.064;2023-03-01T15:05:18;6.60;;;3.20;;
68744;SDS011;66104;45.456;11.064;2023-03-01T15:07:58;6.30;;;3.10;;
68744;SDS011;66104;45.456;11.064;2023-03-01T15:10:38;12.10;;;4.70;;
68744;SDS011;66104;45.456;11.064;2023-03-01T15:13:20;9.70;;;3.50;;
68744;SDS011;66104;45.456;11.064;2023-03-01T15:18:56;10.40;;;4.40;;
68744;SDS011;66104;45.456;11.064;2023-03-01T15:21:36;8.20;;;3.50;;
68744;SDS011;66104;45.456;11.064;2023-03-01T15:24:25;11.10;;;4.10;;
68744;SDS011;66104;45.456;11.064;2023-03-01T15:27:05;12.40;;;5.60;;
68744;SDS011;66104;45.456;11.064;2023-03-01T15:29:51;10.10;;;6.00;;
68744;SDS011;66104;45.456;11.064;2023-03-01T15:32:32;14.70;;;6.80;;
68744;SDS011;66104;45.456;11.064;2023-03-01T15:35:39;12.10;;;4.20;;
68744;SDS011;66104;45.456;11.064;2023-03-01T15:38:33;9.70;;;4.50;;
68744;SDS011;66104;45.456;11.064;2023-03-01T15:41:29;7.60;;;4.30;;
68744;SDS011;66104;45.456;11.064;2023-03-01T15:44:17;10.00;;;4.10;;
68744;SDS011;66104;45.456;11.064;2023-03-01T15:47:25;8.40;;;4.70;;
68744;SDS011;66104;45.456;11.064;2023-03-01T15:50:03;9.70;;;5.50;;
68744;SDS011;66104;45.456;11.064;2023-03-01T15:52:46;10.70;;;5.00;;
68744;SDS011;66104;45.456;11.064;2023-03-01T15:55:24;12.20;;;5.80;;
68744;SDS011;66104;45.456;11.064;2023-03-01T15:58:05;9.30;;;4.90;;
68744;SDS011;66104;45.456;11.064;2023-03-01T16:00:46;13.30;;;6.20;;
68744;SDS011;66104;45.456;11.064;2023-03-01T16:03:32;12.30;;;6.70;;
68744;SDS011;66104;45.456;11.064;2023-03-01T16:06:11;11.40;;;5.80;;
68744;SDS011;66104;45.456;11.064;2023-03-01T16:08:47;13.20;;;5.50;;
68744;SDS011;66104;45.456;11.064;2023-03-01T16:11:23;10.40;;;5.10;;
68744;SDS011;66104;45.456;11.064;2023-03-01T16:14:00;12.00;;;5.80;;
68744;SDS011;66104;45.456;11.064;2023-03-01T16:16:37;10.20;;;6.00;;
68744;SDS011;66104;45.456;11.064;2023-03-01T16:19:14;11.30;;;6.10;;
68744;SDS011;66104;45.456;11.064;2023-03-01T16:21:50;12.10;;;5.80;;